createdAt,value
2024-05-09T00:01:27.558Z,14.80
2024-05-09T00:03:00.262Z,14.10
2024-05-09T00:04:32.406Z,14.30
2024-05-09T00:06:04.814Z,14.50
2024-05-09T00:07:36.714Z,13.90
2024-05-09T00:09:08.498Z,14.30
2024-05-09T00:10:41.190Z,13.40
2024-05-09T00:12:13.988Z,13.50
2024-05-09T00:13:47.464Z,13.80
2024-05-09T00:15:20.660Z,14.30
2024-05-09T00:16:52.851Z,14.60
2024-05-09T00:18:24.914Z,14.10
2024-05-09T00:19:59.391Z,14.40
2024-05-09T00:21:32.539Z,14.00
2024-05-09T00:23:06.424Z,14.60
2024-05-09T00:24:40.982Z,14.60
2024-05-09T00:26:19.491Z,13.90
2024-05-09T00:27:51.479Z,15.10
2024-05-09T00:29:23.710Z,15.50
2024-05-09T00:30:55.671Z,15.00
2024-05-09T00:32:27.758Z,14.90
2024-05-09T00:33:59.860Z,15.00
2024-05-09T00:35:32.355Z,15.00
2024-05-09T00:37:04.440Z,16.00
2024-05-09T00:38:36.389Z,14.80
2024-05-09T00:40:15.359Z,16.00
2024-05-09T00:41:54.945Z,15.70
2024-05-09T00:43:26.825Z,15.40
2024-05-09T00:44:58.841Z,14.60
2024-05-09T00:46:30.656Z,14.80
2024-05-09T00:48:08.839Z,14.40
2024-05-09T00:49:42.394Z,14.90
2024-05-09T00:51:15.032Z,15.30
2024-05-09T00:52:48.800Z,15.50
2024-05-09T00:54:21.846Z,15.50
2024-05-09T00:55:56.539Z,14.60
2024-05-09T00:57:29.130Z,15.40
2024-05-09T00:59:01.824Z,15.00
2024-05-09T01:00:39.063Z,14.70
2024-05-09T01:02:13.384Z,14.90
2024-05-09T01:03:47.959Z,15.30
2024-05-09T01:05:21.590Z,15.50
2024-05-09T01:06:53.463Z,15.10
2024-05-09T01:08:25.872Z,16.10
2024-05-09T01:09:57.703Z,16.50
2024-05-09T01:12:07.618Z,15.80
2024-05-09T01:13:39.519Z,14.60
2024-05-09T01:15:11.387Z,13.60
2024-05-09T01:16:43.568Z,16.20
2024-05-09T01:18:16.291Z,15.60
2024-05-09T01:19:48.224Z,16.00
2024-05-09T01:21:20.282Z,16.30
2024-05-09T01:22:54.098Z,16.00
2024-05-09T01:24:27.466Z,16.00
2024-05-09T01:25:59.860Z,15.30
2024-05-09T01:27:33.438Z,16.60
2024-05-09T01:29:05.349Z,16.40
2024-05-09T01:30:38.228Z,14.10
2024-05-09T01:32:10.527Z,13.90
2024-05-09T01:33:43.293Z,15.90
2024-05-09T01:35:15.116Z,16.00
2024-05-09T01:36:47.013Z,16.00
2024-05-09T01:38:19.702Z,16.10
2024-05-09T01:39:51.625Z,16.20
2024-05-09T01:41:23.673Z,15.60
2024-05-09T01:42:55.641Z,15.90
2024-05-09T01:44:27.538Z,15.60
2024-05-09T01:46:01.686Z,15.80
2024-05-09T01:47:33.564Z,16.40
2024-05-09T01:49:05.816Z,16.20
2024-05-09T01:50:41.318Z,17.10
2024-05-09T01:52:14.887Z,17.50
2024-05-09T01:53:47.554Z,16.50
2024-05-09T01:55:19.500Z,17.50
2024-05-09T01:56:56.432Z,17.10
2024-05-09T01:58:28.890Z,17.40
2024-05-09T02:00:00.946Z,16.90
2024-05-09T02:01:55.465Z,16.70
2024-05-09T02:03:25.242Z,16.30
2024-05-09T02:04:57.451Z,16.70
2024-05-09T02:06:29.360Z,16.50
2024-05-09T02:08:01.393Z,15.80
2024-05-09T02:09:33.126Z,15.20
2024-05-09T02:11:08.163Z,16.20
2024-05-09T02:12:40.705Z,14.40
2024-05-09T02:14:12.654Z,15.60
2024-05-09T02:15:44.604Z,17.30
2024-05-09T02:17:16.716Z,16.70
2024-05-09T02:18:48.717Z,16.90
2024-05-09T02:20:30.530Z,16.00
2024-05-09T02:22:07.600Z,17.80
2024-05-09T02:23:39.489Z,16.30
2024-05-09T02:25:11.319Z,15.40
2024-05-09T02:26:44.693Z,15.10
2024-05-09T02:28:16.685Z,17.30
2024-05-09T02:29:48.480Z,16.50
2024-05-09T02:31:21.472Z,18.60
2024-05-09T02:32:53.387Z,19.00
2024-05-09T02:34:25.428Z,18.80
2024-05-09T02:35:57.332Z,17.30
2024-05-09T02:37:29.039Z,16.80
2024-05-09T02:39:00.936Z,16.60
2024-05-09T02:40:36.976Z,17.30
2024-05-09T02:42:10.728Z,17.50
2024-05-09T02:43:42.494Z,18.40
2024-05-09T02:45:16.825Z,17.20
2024-05-09T02:46:49.847Z,16.80
2024-05-09T02:48:21.766Z,17.60
2024-05-09T02:49:53.701Z,16.90
2024-05-09T02:51:25.459Z,16.90
2024-05-09T02:52:57.259Z,17.80
2024-05-09T02:54:29.131Z,17.50
2024-05-09T02:56:00.989Z,17.70
2024-05-09T02:57:33.708Z,16.80
2024-05-09T02:59:05.434Z,16.70
2024-05-09T03:00:41.228Z,17.30
2024-05-09T03:02:15.745Z,17.60
2024-05-09T03:03:48.441Z,17.80
2024-05-09T03:05:23.062Z,17.60
2024-05-09T03:06:54.922Z,16.90
2024-05-09T03:08:27.952Z,18.30
2024-05-09T03:10:00.164Z,17.30
2024-05-09T03:11:32.624Z,18.20
2024-05-09T03:13:13.542Z,17.90
2024-05-09T03:14:50.536Z,17.90
2024-05-09T03:16:22.388Z,18.90
2024-05-09T03:17:54.163Z,19.50
2024-05-09T03:19:28.564Z,18.20
2024-05-09T03:21:00.753Z,18.50
2024-05-09T03:22:32.859Z,19.00
2024-05-09T03:24:08.235Z,16.20
2024-05-09T03:25:40.212Z,18.30
2024-05-09T03:27:12.165Z,17.60
2024-05-09T03:28:44.756Z,18.00
2024-05-09T03:30:28.888Z,17.20
2024-05-09T03:32:07.555Z,16.60
2024-05-09T03:33:39.520Z,18.60
2024-05-09T03:35:11.665Z,18.40
2024-05-09T03:36:43.372Z,18.60
2024-05-09T03:38:15.374Z,18.70
2024-05-09T03:39:47.476Z,18.80
2024-05-09T03:41:20.839Z,17.10
2024-05-09T03:42:52.656Z,17.30
2024-05-09T03:44:24.504Z,19.80
2024-05-09T03:45:57.896Z,17.30
2024-05-09T03:47:32.498Z,19.20
2024-05-09T03:49:07.001Z,18.70
2024-05-09T03:50:39.211Z,18.90
2024-05-09T03:52:11.439Z,17.30
2024-05-09T03:53:43.318Z,18.10
2024-05-09T03:55:15.527Z,16.30
2024-05-09T03:56:47.505Z,18.20
2024-05-09T03:58:19.265Z,19.10
2024-05-09T03:59:51.071Z,18.20
2024-05-09T04:01:25.377Z,18.50
2024-05-09T04:02:59.981Z,18.80
2024-05-09T04:04:32.960Z,15.50
2024-05-09T04:06:06.119Z,16.80
2024-05-09T04:07:38.160Z,17.50
2024-05-09T04:09:12.409Z,17.10
2024-05-09T04:10:44.284Z,17.50
2024-05-09T04:12:16.694Z,17.40
2024-05-09T04:13:48.692Z,17.20
2024-05-09T04:15:21.203Z,17.20
2024-05-09T04:16:53.131Z,17.60
2024-05-09T04:18:25.188Z,18.50
2024-05-09T04:19:58.528Z,18.50
2024-05-09T04:21:30.454Z,18.50
2024-05-09T04:23:02.248Z,18.60
2024-05-09T04:24:34.131Z,17.90
2024-05-09T04:26:08.566Z,18.40
2024-05-09T04:27:40.377Z,18.00
2024-05-09T04:29:13.797Z,17.90
2024-05-09T04:30:48.353Z,17.60
2024-05-09T04:32:20.117Z,17.00
2024-05-09T04:33:52.108Z,17.90
2024-05-09T04:35:24.170Z,16.90
2024-05-09T04:36:57.473Z,17.80
2024-05-09T04:38:30.076Z,17.10
2024-05-09T04:40:02.277Z,17.50
2024-05-09T04:41:34.184Z,17.80
2024-05-09T04:43:13.177Z,18.20
2024-05-09T04:44:48.381Z,17.00
2024-05-09T04:46:22.645Z,17.40
2024-05-09T04:47:55.082Z,16.90
2024-05-09T04:49:27.216Z,17.70
2024-05-09T04:51:02.237Z,17.90
2024-05-09T04:52:34.248Z,18.00
2024-05-09T04:54:08.377Z,18.30
2024-05-09T04:55:43.136Z,16.80
2024-05-09T04:57:17.617Z,17.70
2024-05-09T04:58:52.029Z,17.90
2024-05-09T05:00:32.432Z,16.70
2024-05-09T05:02:09.263Z,18.40
2024-05-09T05:03:42.353Z,18.20
2024-05-09T05:05:14.782Z,18.20
2024-05-09T05:06:46.886Z,19.10
2024-05-09T05:08:19.523Z,17.80
2024-05-09T05:09:51.666Z,17.60
2024-05-09T05:11:23.572Z,18.60
2024-05-09T05:13:14.238Z,18.00
2024-05-09T05:14:46.830Z,18.10
2024-05-09T05:16:18.656Z,18.40
2024-05-09T05:17:50.651Z,18.50
2024-05-09T05:19:22.641Z,19.70
2024-05-09T05:20:59.563Z,19.50
2024-05-09T05:22:33.817Z,19.50
2024-05-09T05:24:06.184Z,19.30
2024-05-09T05:25:38.380Z,20.00
2024-05-09T05:27:10.387Z,19.30
2024-05-09T05:28:42.286Z,19.30
2024-05-09T05:30:21.189Z,18.80
2024-05-09T05:31:57.432Z,19.60
2024-05-09T05:33:31.640Z,20.30
2024-05-09T05:35:05.435Z,20.10
2024-05-09T05:36:37.400Z,20.50
2024-05-09T05:38:10.611Z,19.80
2024-05-09T05:39:42.524Z,19.90
2024-05-09T05:41:16.961Z,20.10
2024-05-09T05:42:48.803Z,19.60
2024-05-09T05:44:20.720Z,20.50
2024-05-09T05:45:53.864Z,20.40
2024-05-09T05:47:26.070Z,16.70
2024-05-09T05:48:58.368Z,19.30
2024-05-09T05:50:35.838Z,19.40
2024-05-09T05:52:12.264Z,19.30
2024-05-09T05:53:45.014Z,18.70
2024-05-09T05:55:17.031Z,18.20
2024-05-09T05:56:48.731Z,17.30
2024-05-09T05:58:21.503Z,17.90
2024-05-09T05:59:53.704Z,17.40
2024-05-09T06:01:25.966Z,17.20
2024-05-09T06:02:57.863Z,17.20
2024-05-09T06:04:31.388Z,15.60
2024-05-09T06:06:06.202Z,17.70
2024-05-09T06:07:38.819Z,16.90
2024-05-09T06:09:14.647Z,17.80
2024-05-09T06:10:46.582Z,17.30
2024-05-09T06:12:18.812Z,17.10
2024-05-09T06:13:50.854Z,16.60
2024-05-09T06:15:23.095Z,17.90
2024-05-09T06:16:58.116Z,17.50
2024-05-09T06:18:30.504Z,16.80
2024-05-09T06:20:02.609Z,18.60
2024-05-09T06:21:37.791Z,17.80
2024-05-09T06:23:10.361Z,17.30
2024-05-09T06:24:42.878Z,16.80
2024-05-09T06:26:16.515Z,19.30
2024-05-09T06:27:48.391Z,17.80
2024-05-09T06:29:20.249Z,17.10
2024-05-09T06:30:52.740Z,18.00
2024-05-09T06:32:24.825Z,18.40
2024-05-09T06:33:57.010Z,17.90
2024-05-09T06:35:28.884Z,17.90
2024-05-09T06:37:00.932Z,17.50
2024-05-09T06:38:33.763Z,17.80
2024-05-09T06:40:07.611Z,18.10
2024-05-09T06:41:41.721Z,18.60
2024-05-09T06:43:18.791Z,17.20
2024-05-09T06:44:52.223Z,16.90
2024-05-09T06:46:25.228Z,17.00
2024-05-09T06:47:57.138Z,18.70
2024-05-09T06:49:31.941Z,16.90
2024-05-09T06:51:04.179Z,16.80
2024-05-09T06:52:36.067Z,16.20
2024-05-09T06:54:09.299Z,17.10
2024-05-09T06:55:42.026Z,18.40
2024-05-09T06:57:13.807Z,15.50
2024-05-09T06:58:45.660Z,18.00
2024-05-09T07:00:26.784Z,19.30
2024-05-09T07:02:04.440Z,17.40
2024-05-09T07:03:36.222Z,16.50
2024-05-09T07:05:08.240Z,16.90
2024-05-09T07:06:40.615Z,15.60
2024-05-09T07:08:12.719Z,14.60
2024-05-09T07:09:44.725Z,17.20
2024-05-09T07:11:17.231Z,15.40
2024-05-09T07:12:49.256Z,18.10
2024-05-09T07:14:21.069Z,17.70
2024-05-09T07:15:52.880Z,17.60
2024-05-09T07:17:24.938Z,17.80
2024-05-09T07:18:57.075Z,14.50
2024-05-09T07:20:34.448Z,14.80
2024-05-09T07:22:07.212Z,17.40
2024-05-09T07:23:39.172Z,16.90
2024-05-09T07:25:11.022Z,16.30
2024-05-09T07:26:42.901Z,17.10
2024-05-09T07:28:20.619Z,16.70
2024-05-09T07:29:52.401Z,16.50
2024-05-09T07:31:27.879Z,17.20
2024-05-09T07:33:00.842Z,15.80
2024-05-09T07:34:32.924Z,16.10
2024-05-09T07:36:05.866Z,15.40
2024-05-09T07:37:40.601Z,16.20
2024-05-09T07:39:12.375Z,17.40
2024-05-09T07:40:44.245Z,17.20
2024-05-09T07:42:16.137Z,14.30
2024-05-09T07:43:48.991Z,15.70
2024-05-09T07:45:40.601Z,15.90
2024-05-09T07:48:28.031Z,16.90
2024-05-09T07:53:30.021Z,13.90
2024-05-09T07:54:10.261Z,16.20
2024-05-09T07:55:42.583Z,16.40
2024-05-09T07:57:14.925Z,16.90
2024-05-09T07:58:50.907Z,14.40
2024-05-09T08:00:29.744Z,13.30
2024-05-09T08:02:06.028Z,14.50
2024-05-09T08:03:38.552Z,16.70
2024-05-09T08:05:10.761Z,15.90
2024-05-09T08:06:42.888Z,15.00
2024-05-09T08:08:15.167Z,14.00
2024-05-09T08:09:47.296Z,14.90
2024-05-09T08:11:21.903Z,15.00
2024-05-09T08:12:54.311Z,16.40
2024-05-09T08:14:26.166Z,14.60
2024-05-09T08:15:58.049Z,13.70
2024-05-09T08:17:30.524Z,14.20
2024-05-09T08:19:03.328Z,13.90
2024-05-09T08:20:41.395Z,14.90
2024-05-09T08:22:15.026Z,13.30
2024-05-09T08:23:49.212Z,14.30
2024-05-09T08:25:22.018Z,14.80
2024-05-09T08:26:53.793Z,14.00
2024-05-09T08:28:26.169Z,13.70
2024-05-09T08:29:57.945Z,11.60
2024-05-09T08:31:29.769Z,13.30
2024-05-09T08:33:02.075Z,12.20
2024-05-09T08:34:34.294Z,10.90
2024-05-09T08:36:06.710Z,12.70
2024-05-09T08:37:40.584Z,12.20
2024-05-09T08:39:12.815Z,11.90
2024-05-09T08:40:44.882Z,12.20
2024-05-09T08:42:20.728Z,11.30
2024-05-09T08:43:52.607Z,12.70
2024-05-09T08:45:26.362Z,9.50
2024-05-09T08:46:59.482Z,10.40
2024-05-09T08:48:36.456Z,12.40
2024-05-09T08:50:24.145Z,10.80
2024-05-09T08:52:04.823Z,11.90
2024-05-09T08:53:36.814Z,12.20
2024-05-09T08:55:09.281Z,13.10
2024-05-09T08:56:48.351Z,11.70
2024-05-09T08:58:20.544Z,11.90
2024-05-09T08:59:55.539Z,11.70
2024-05-09T09:01:33.656Z,11.40
2024-05-09T09:03:09.679Z,10.70
2024-05-09T09:05:07.665Z,11.50
2024-05-09T09:06:39.899Z,10.90
2024-05-09T09:08:12.402Z,11.20
2024-05-09T09:09:47.007Z,10.60
2024-05-09T09:11:19.121Z,10.70
2024-05-09T09:12:58.099Z,8.70
2024-05-09T09:14:30.194Z,10.40
2024-05-09T09:16:04.939Z,10.40
2024-05-09T09:17:37.253Z,9.70
2024-05-09T09:19:09.821Z,8.20
2024-05-09T09:20:42.623Z,8.90
2024-05-09T09:22:15.167Z,10.50
2024-05-09T09:23:47.001Z,10.10
2024-05-09T09:25:20.691Z,10.90
2024-05-09T09:26:56.369Z,10.30
2024-05-09T09:28:29.359Z,10.50
2024-05-09T09:30:07.004Z,10.00
2024-05-09T09:33:36.298Z,9.40
2024-05-09T09:35:11.387Z,9.40
2024-05-09T09:36:44.672Z,9.10
2024-05-09T09:38:23.196Z,8.60
2024-05-09T09:39:56.012Z,9.10
2024-05-09T09:41:30.613Z,8.60
2024-05-09T09:43:08.301Z,9.60
2024-05-09T09:44:42.411Z,10.30
2024-05-09T09:46:20.362Z,10.30
2024-05-09T09:47:57.791Z,10.00
2024-05-09T09:49:33.387Z,9.20
2024-05-09T09:51:07.695Z,8.90
2024-05-09T09:52:40.591Z,9.00
2024-05-09T09:54:13.573Z,8.90
2024-05-09T09:55:47.091Z,9.30
2024-05-09T09:57:20.314Z,10.50
2024-05-09T09:58:57.395Z,9.10
2024-05-09T10:00:33.314Z,9.40
2024-05-09T10:02:06.504Z,7.90
2024-05-09T10:05:57.871Z,9.70
2024-05-09T10:07:32.254Z,8.80
2024-05-09T10:09:04.704Z,9.20
2024-05-09T10:10:37.403Z,9.60
2024-05-09T10:12:13.860Z,9.80
2024-05-09T10:13:46.662Z,9.00
2024-05-09T10:15:19.721Z,7.10
2024-05-09T10:16:51.599Z,9.30
2024-05-09T10:18:30.164Z,10.30
2024-05-09T10:20:14.802Z,9.40
2024-05-09T10:22:05.864Z,9.20
2024-05-09T10:23:38.798Z,8.60
2024-05-09T10:27:00.667Z,6.70
2024-05-09T10:28:40.521Z,8.70
2024-05-09T10:32:01.502Z,8.30
2024-05-09T10:33:50.655Z,9.00
2024-05-09T10:35:27.159Z,9.40
2024-05-09T10:37:04.180Z,8.60
2024-05-09T10:38:36.906Z,9.20
2024-05-09T10:40:23.474Z,9.60
2024-05-09T10:42:00.996Z,9.70
2024-05-09T10:43:34.103Z,10.20
2024-05-09T10:45:08.377Z,9.80
2024-05-09T10:46:47.489Z,9.20
2024-05-09T10:48:19.379Z,9.60
2024-05-09T10:49:51.841Z,7.80
2024-05-09T10:51:24.598Z,8.80
2024-05-09T10:52:57.434Z,9.60
2024-05-09T10:54:37.217Z,9.00
2024-05-09T10:56:15.074Z,10.10
2024-05-09T10:57:49.290Z,9.90
2024-05-09T10:59:22.596Z,6.90
2024-05-09T11:02:48.494Z,9.40
2024-05-09T11:04:20.591Z,9.50
2024-05-09T11:05:53.873Z,9.30
2024-05-09T11:07:26.305Z,9.40
2024-05-09T11:08:58.302Z,8.40
2024-05-09T11:10:33.846Z,9.40
2024-05-09T11:12:09.152Z,9.30
2024-05-09T11:13:42.669Z,8.40
2024-05-09T11:15:16.391Z,8.40
2024-05-09T11:17:06.680Z,8.60
2024-05-09T11:18:39.587Z,7.80
2024-05-09T11:20:19.562Z,8.50
2024-05-09T11:22:03.676Z,7.70
2024-05-09T11:23:35.440Z,8.40
2024-05-09T11:25:09.321Z,9.10
2024-05-09T11:26:43.636Z,9.20
2024-05-09T11:28:15.453Z,8.40
2024-05-09T11:29:47.245Z,7.70
2024-05-09T11:31:19.698Z,6.40
2024-05-09T11:32:55.143Z,6.70
2024-05-09T11:34:27.175Z,6.70
2024-05-09T11:35:59.087Z,5.90
2024-05-09T11:37:35.287Z,6.00
2024-05-09T11:39:08.768Z,9.10
2024-05-09T11:40:40.999Z,7.10
2024-05-09T11:42:14.171Z,9.60
2024-05-09T11:43:51.504Z,7.20
2024-05-09T11:45:23.391Z,6.90
2024-05-09T11:46:55.950Z,8.00
2024-05-09T11:48:28.349Z,7.10
2024-05-09T11:50:00.656Z,8.80
2024-05-09T11:51:32.647Z,8.30
2024-05-09T11:53:04.757Z,8.30
2024-05-09T11:54:37.430Z,9.40
2024-05-09T11:56:11.877Z,8.80
2024-05-09T11:57:45.918Z,8.90
2024-05-09T11:59:19.312Z,8.20
2024-05-09T12:00:52.081Z,8.80
2024-05-09T12:02:26.325Z,8.50
2024-05-09T12:03:58.738Z,7.50
2024-05-09T12:05:31.020Z,6.70
2024-05-09T12:07:04.037Z,6.30
2024-05-09T12:08:36.061Z,7.30
2024-05-09T12:10:13.992Z,7.80
2024-05-09T12:11:48.958Z,7.30
2024-05-09T12:13:21.170Z,7.20
2024-05-09T12:14:54.164Z,5.40
2024-05-09T12:16:27.224Z,5.50
2024-05-09T12:18:02.715Z,8.20
2024-05-09T12:19:36.932Z,8.00
2024-05-09T12:21:08.858Z,7.70
2024-05-09T12:22:40.647Z,6.30
2024-05-09T12:24:14.485Z,6.00
2024-05-09T12:25:48.308Z,6.20
2024-05-09T12:27:20.311Z,6.70
2024-05-09T12:28:52.226Z,6.40
2024-05-09T12:30:32.227Z,5.50
2024-05-09T12:32:11.028Z,6.70
2024-05-09T12:33:43.015Z,5.60
2024-05-09T12:35:15.574Z,5.30
2024-05-09T12:36:47.977Z,5.40
2024-05-09T12:38:19.772Z,5.30
2024-05-09T12:39:51.585Z,6.60
2024-05-09T12:41:25.552Z,6.80
2024-05-09T12:42:57.436Z,7.80
2024-05-09T12:44:32.406Z,7.00
2024-05-09T12:46:04.752Z,7.40
2024-05-09T12:47:36.779Z,7.70
2024-05-09T12:49:08.890Z,7.00
2024-05-09T12:50:41.719Z,7.60
2024-05-09T12:52:14.095Z,7.70
2024-05-09T12:53:46.171Z,8.00
2024-05-09T12:55:18.115Z,6.30
2024-05-09T12:56:50.520Z,7.60
2024-05-09T12:58:23.123Z,8.00
2024-05-09T12:59:55.730Z,6.30
2024-05-09T13:01:27.680Z,7.20
2024-05-09T13:03:01.166Z,7.80
2024-05-09T13:04:36.039Z,6.60
2024-05-09T13:06:08.638Z,7.00
2024-05-09T13:07:41.421Z,7.60
2024-05-09T13:09:13.263Z,6.50
2024-05-09T13:10:45.370Z,7.10
2024-05-09T13:12:17.385Z,7.30
2024-05-09T13:13:50.349Z,7.60
2024-05-09T13:15:22.219Z,8.10
2024-05-09T13:16:54.168Z,7.50
2024-05-09T13:18:26.068Z,6.70
2024-05-09T13:19:58.168Z,4.70
2024-05-09T13:21:30.015Z,7.80
2024-05-09T13:23:05.389Z,6.50
2024-05-09T13:24:37.802Z,5.60
2024-05-09T13:26:12.243Z,7.20
2024-05-09T13:27:44.224Z,6.90
2024-05-09T13:29:16.321Z,6.00
2024-05-09T13:30:48.326Z,6.90
2024-05-09T13:32:21.301Z,7.00
2024-05-09T13:33:53.172Z,7.00
2024-05-09T13:35:25.239Z,6.90
2024-05-09T13:36:57.163Z,5.70
2024-05-09T13:38:29.237Z,6.20
2024-05-09T13:40:02.177Z,11.50
2024-05-09T13:41:34.310Z,7.00
2024-05-09T13:43:07.029Z,6.80
2024-05-09T13:44:39.452Z,7.80
2024-05-09T13:46:13.807Z,5.70
2024-05-09T13:47:48.086Z,5.80
2024-05-09T13:49:20.202Z,6.30
2024-05-09T13:50:52.535Z,5.20
2024-05-09T13:52:24.461Z,6.40
2024-05-09T13:53:59.201Z,8.90
2024-05-09T13:55:31.185Z,8.00
2024-05-09T13:57:13.336Z,6.30
2024-05-09T13:58:46.472Z,7.40
2024-05-09T14:00:31.611Z,6.00
2024-05-09T14:02:10.258Z,7.10
2024-05-09T14:03:42.828Z,7.10
2024-05-09T14:05:15.206Z,8.50
2024-05-09T14:06:47.857Z,6.80
2024-05-09T14:08:22.702Z,6.50
2024-05-09T14:09:55.023Z,7.10
2024-05-09T14:11:27.739Z,7.80
2024-05-09T14:13:01.174Z,7.40
2024-05-09T14:14:34.780Z,6.80
2024-05-09T14:16:07.638Z,7.20
2024-05-09T14:17:40.138Z,7.00
2024-05-09T14:19:12.550Z,7.10
2024-05-09T14:20:44.548Z,7.00
2024-05-09T14:22:19.085Z,6.40
2024-05-09T14:23:51.327Z,7.60
2024-05-09T14:25:26.115Z,7.30
2024-05-09T14:26:59.439Z,7.10
2024-05-09T14:28:32.583Z,6.30
2024-05-09T14:30:14.919Z,6.50
2024-05-09T14:31:54.478Z,5.30
2024-05-09T14:33:27.310Z,6.70
2024-05-09T14:34:59.429Z,6.00
2024-05-09T14:36:34.217Z,6.90
2024-05-09T14:38:08.532Z,6.40
2024-05-09T14:39:41.000Z,6.50
2024-05-09T14:41:13.231Z,7.50
2024-05-09T14:42:45.015Z,7.30
2024-05-09T14:44:17.012Z,7.30
2024-05-09T14:45:49.992Z,6.80
2024-05-09T14:47:22.113Z,7.10
2024-05-09T14:48:54.209Z,8.00
2024-05-09T14:50:34.705Z,6.80
2024-05-09T14:52:10.262Z,7.60
2024-05-09T14:53:43.805Z,6.60
2024-05-09T14:55:15.791Z,8.20
2024-05-09T14:56:47.853Z,7.50
2024-05-09T14:58:19.902Z,6.70
2024-05-09T14:59:52.480Z,7.70
2024-05-09T15:01:24.966Z,6.10
2024-05-09T15:02:57.261Z,8.30
2024-05-09T15:04:29.784Z,8.10
2024-05-09T15:06:01.777Z,7.50
2024-05-09T15:07:34.394Z,7.10
2024-05-09T15:09:07.555Z,6.80
2024-05-09T15:10:39.662Z,7.70
2024-05-09T15:12:12.596Z,7.70
2024-05-09T15:13:44.471Z,8.80
2024-05-09T15:15:17.775Z,7.30
2024-05-09T15:16:49.934Z,6.70
2024-05-09T15:18:22.071Z,6.00
2024-05-09T15:19:54.220Z,7.70
2024-05-09T15:21:26.474Z,9.00
2024-05-09T15:22:58.390Z,7.80
2024-05-09T15:24:30.325Z,7.90
2024-05-09T15:26:07.165Z,7.90
2024-05-09T15:27:39.101Z,7.60
2024-05-09T15:29:11.032Z,9.10
2024-05-09T15:30:45.968Z,8.30
2024-05-09T15:32:18.867Z,8.20
2024-05-09T15:33:50.914Z,8.90
2024-05-09T15:35:22.652Z,7.60
2024-05-09T15:36:54.471Z,7.50
2024-05-09T15:38:27.957Z,8.20
2024-05-09T15:40:01.256Z,6.70
2024-05-09T15:41:33.399Z,7.50
2024-05-09T15:43:06.215Z,7.30
2024-05-09T15:44:38.232Z,6.70
2024-05-09T15:46:10.200Z,7.10
2024-05-09T15:47:43.504Z,6.70
2024-05-09T15:49:15.722Z,6.70
2024-05-09T15:50:47.836Z,7.40
2024-05-09T15:52:19.887Z,7.10
2024-05-09T15:53:52.517Z,6.60
2024-05-09T15:55:24.646Z,7.80
2024-05-09T15:56:56.566Z,5.60
2024-05-09T15:58:30.280Z,8.00
2024-05-09T16:00:02.094Z,7.20
2024-05-09T16:01:44.642Z,7.10
2024-05-09T16:03:16.769Z,6.50
2024-05-09T16:04:49.283Z,5.20
2024-05-09T16:06:22.666Z,6.30
2024-05-09T16:07:54.638Z,5.40
2024-05-09T16:09:30.163Z,5.80
2024-05-09T16:11:03.020Z,5.60
2024-05-09T16:12:36.936Z,4.70
2024-05-09T16:14:09.406Z,5.30
2024-05-09T16:15:42.893Z,5.10
2024-05-09T16:17:15.077Z,7.60
2024-05-09T16:18:47.104Z,5.30
2024-05-09T16:20:29.886Z,5.00
2024-05-09T16:22:10.459Z,6.30
2024-05-09T16:23:42.465Z,6.40
2024-05-09T16:25:14.317Z,5.60
2024-05-09T16:26:46.459Z,5.10
2024-05-09T16:28:19.864Z,6.00
2024-05-09T16:29:53.474Z,6.00
2024-05-09T16:31:25.441Z,6.00
2024-05-09T16:32:57.461Z,5.60
2024-05-09T16:34:30.314Z,5.40
2024-05-09T16:36:02.375Z,5.50
2024-05-09T16:37:34.298Z,5.30
2024-05-09T16:39:06.305Z,5.00
2024-05-09T16:40:40.816Z,6.00
2024-05-09T16:42:13.509Z,5.60
2024-05-09T16:43:45.363Z,5.40
2024-05-09T16:45:17.280Z,4.80
2024-05-09T16:46:49.086Z,5.70
2024-05-09T16:48:21.309Z,5.70
2024-05-09T16:49:53.139Z,5.30
2024-05-09T16:51:26.093Z,5.70
2024-05-09T16:52:57.960Z,5.70
2024-05-09T16:54:29.868Z,5.30
2024-05-09T16:56:05.439Z,5.90
2024-05-09T16:57:37.909Z,5.60
2024-05-09T16:59:10.290Z,5.40
2024-05-09T17:00:43.940Z,5.80
2024-05-09T17:02:19.303Z,5.30
2024-05-09T17:03:51.908Z,5.30
2024-05-09T17:05:23.824Z,4.50
2024-05-09T17:06:56.406Z,6.20
2024-05-09T17:08:28.920Z,6.20
2024-05-09T17:10:00.900Z,6.50
2024-05-09T17:11:34.256Z,6.80
2024-05-09T17:13:07.563Z,6.40
2024-05-09T17:14:40.203Z,7.80
2024-05-09T17:16:13.504Z,6.60
2024-05-09T17:17:45.591Z,6.30
2024-05-09T17:19:19.358Z,7.20
2024-05-09T17:20:53.457Z,7.80
2024-05-09T17:22:25.662Z,6.90
2024-05-09T17:23:57.611Z,7.00
2024-05-09T17:25:29.871Z,6.70
2024-05-09T17:27:02.432Z,7.70
2024-05-09T17:28:34.501Z,6.80
2024-05-09T17:30:08.112Z,5.90
2024-05-09T17:31:43.717Z,7.20
2024-05-09T17:33:15.934Z,8.10
2024-05-09T17:34:50.228Z,7.00
2024-05-09T17:36:22.307Z,7.40
2024-05-09T17:37:54.353Z,6.80
2024-05-09T17:39:27.375Z,5.90
2024-05-09T17:40:59.302Z,6.30
2024-05-09T17:42:33.438Z,6.40
2024-05-09T17:44:06.485Z,6.50
2024-05-09T17:45:40.505Z,7.00
2024-05-09T17:47:14.261Z,6.80
2024-05-09T17:48:46.184Z,7.20
2024-05-09T17:50:24.600Z,6.90
2024-05-09T17:52:03.532Z,7.40
2024-05-09T17:53:35.446Z,6.80
2024-05-09T17:55:07.769Z,5.80
2024-05-09T17:56:39.707Z,6.60
2024-05-09T17:58:12.722Z,6.80
2024-05-09T17:59:44.717Z,6.70
2024-05-09T18:01:16.638Z,6.20
2024-05-09T18:02:48.662Z,6.10
2024-05-09T18:04:22.110Z,5.90
2024-05-09T18:05:55.493Z,6.70
2024-05-09T18:07:27.571Z,6.60
2024-05-09T18:08:59.403Z,7.30
2024-05-09T18:10:36.675Z,6.70
2024-05-09T18:12:11.456Z,7.00
2024-05-09T18:13:46.936Z,6.60
2024-05-09T18:15:18.835Z,6.40
2024-05-09T18:16:50.768Z,6.70
2024-05-09T18:18:23.169Z,6.60
2024-05-09T18:19:56.186Z,6.60
2024-05-09T18:21:28.786Z,5.60
2024-05-09T18:23:00.688Z,6.60
2024-05-09T18:24:34.908Z,5.90
2024-05-09T18:26:09.514Z,7.20
2024-05-09T18:27:41.851Z,6.30
2024-05-09T18:29:14.231Z,6.20
2024-05-09T18:30:48.205Z,6.70
2024-05-09T18:32:21.527Z,6.10
2024-05-09T18:33:53.445Z,6.40
2024-05-09T18:35:25.509Z,6.60
2024-05-09T18:36:57.502Z,6.00
2024-05-09T18:38:29.771Z,5.60
2024-05-09T18:40:01.609Z,5.90
2024-05-09T18:41:36.624Z,5.90
2024-05-09T18:43:09.188Z,6.00
2024-05-09T18:44:43.093Z,5.80
2024-05-09T18:46:15.815Z,6.00
2024-05-09T18:47:47.914Z,6.10
2024-05-09T18:49:19.779Z,5.80
2024-05-09T18:50:52.681Z,6.20
2024-05-09T18:52:24.602Z,4.90
2024-05-09T18:53:56.477Z,5.10
2024-05-09T18:55:28.546Z,5.80
2024-05-09T18:57:00.883Z,6.00
2024-05-09T18:58:34.003Z,5.40
2024-05-09T19:00:10.826Z,5.70
2024-05-09T19:01:47.906Z,5.10
2024-05-09T19:03:20.366Z,5.80
2024-05-09T19:04:52.851Z,4.80
2024-05-09T19:06:25.135Z,6.20
2024-05-09T19:07:58.113Z,5.70
2024-05-09T19:09:30.015Z,5.40
2024-05-09T19:11:02.060Z,5.20
2024-05-09T19:12:34.951Z,5.70
2024-05-09T19:14:07.770Z,5.90
2024-05-09T19:15:40.376Z,5.80
2024-05-09T19:17:13.423Z,5.30
2024-05-09T19:18:51.915Z,5.40
2024-05-09T19:20:31.952Z,5.90
2024-05-09T19:22:08.226Z,5.60
2024-05-09T19:23:47.076Z,6.00
2024-05-09T19:25:23.766Z,5.70
2024-05-09T19:26:56.525Z,5.00
2024-05-09T19:28:28.320Z,5.80
2024-05-09T19:30:03.202Z,5.40
2024-05-09T19:31:37.599Z,5.50
2024-05-09T19:33:13.267Z,5.10
2024-05-09T19:34:45.990Z,6.00
2024-05-09T19:36:19.469Z,5.40
2024-05-09T19:37:52.471Z,5.50
2024-05-09T19:39:24.468Z,5.20
2024-05-09T19:40:57.866Z,5.60
2024-05-09T19:42:33.112Z,5.60
2024-05-09T19:44:05.331Z,5.20
2024-05-09T19:45:37.349Z,6.00
2024-05-09T19:47:09.755Z,5.60
2024-05-09T19:48:41.830Z,5.30
2024-05-09T19:50:26.043Z,5.30
2024-05-09T19:52:05.797Z,5.20
2024-05-09T19:53:37.847Z,5.90
2024-05-09T19:55:09.825Z,5.30
2024-05-09T19:56:44.984Z,5.00
2024-05-09T19:58:18.053Z,5.00
2024-05-09T19:59:49.890Z,5.60
2024-05-09T20:01:22.836Z,5.60
2024-05-09T20:02:56.505Z,6.20
2024-05-09T20:04:28.610Z,5.60
2024-05-09T20:06:01.886Z,6.40
2024-05-09T20:07:35.735Z,5.80
2024-05-09T20:09:13.151Z,6.00
2024-05-09T20:10:45.054Z,5.90
2024-05-09T20:12:18.453Z,5.80
2024-05-09T20:13:50.193Z,6.90
2024-05-09T20:15:22.018Z,7.00
2024-05-09T20:16:53.750Z,6.70
2024-05-09T20:18:25.924Z,6.00
2024-05-09T20:19:58.091Z,6.20
2024-05-09T20:21:30.511Z,6.10
2024-05-09T20:23:02.333Z,5.90
2024-05-09T20:24:34.257Z,6.70
2024-05-09T20:26:08.972Z,6.70
2024-05-09T20:27:41.233Z,6.70
2024-05-09T20:29:13.037Z,6.30
2024-05-09T20:30:45.145Z,6.30
2024-05-09T20:32:18.583Z,6.90
2024-05-09T20:33:50.476Z,6.90
2024-05-09T20:35:22.259Z,6.10
2024-05-09T20:36:54.154Z,6.00
2024-05-09T20:38:25.978Z,6.70
2024-05-09T20:39:57.762Z,6.30
2024-05-09T20:41:29.601Z,6.40